Thunder radar more information blitzortung!


Radar de pluja more information rain snow radar


Visita la nostra xarxa de llocs de meteo:

Template documentation
and downloads

And another site



No particular awareness of the weather is required.    There are no Weather-warnings

Pagina Historial Weather Underground text

Diari Resum Agost 21, 2017 Unitats:  Imperial    Mètric   Tant
« Previous Dia
SegĂźent Dia »
Diari Setmana Mensual Anual Personalitzada
  Maxima: Minima: Media:
Temperatura: TemperatureC °F 19.3 °F 26.2 °F
Punt de rosada: DewpointC °F 15.8 °F 18.1 °F
Humitat: Humidity % 38 % 62 %
Wind Speed: WindSpeedKMH mph 0.0 mph 5.8 mph
RĂ fegues de vent: WindSpeedGustKMH mph - -
Vent:- - SSE
Pression baro: PressurehPa in 1014.8 in -
Precipitacions: 0.0 in    
Historical Graphs
 
 
Dades de taula per Agost 21, 2017
Temps Temperatura Punt de rosada Pression baro Vent Wind Speed RĂ fegues de vent Humitat Rainfall Rate (Hourly)
TemperatureC °F DewpointC °F PressurehPa in Calm     Humidity % HourlyPrecipMM in
00:04 22.3 °F 17.9 °F 1018.8 in SW 3.7 mph 3.7 mph 76 % 0.0 in
00:05 20.5 °F 17.9 °F 1018.8 in Calm   3.2 mph 85 % 0.0 in
00:15 20.3 °F 17.5 °F 1018.8 in ENE 1.6 mph 3.2 mph 84 % 0.0 in
00:25 20.3 °F 17.7 °F 1018.8 in Calm   1.6 mph 85 % 0.0 in
00:35 20.3 °F 17.5 °F 1018.8 in Calm   4.8 mph 84 % 0.0 in
00:45 20.2 °F 17.6 °F 1018.8 in Calm   1.6 mph 85 % 0.0 in
00:55 20.1 °F 17.5 °F 1018.8 in Calm   1.6 mph 85 % 0.0 in
01:05 20.0 °F 17.4 °F 1018.8 in Calm     85 % 0.0 in
01:15 19.9 °F 17.5 °F 1018.8 in WSW 1.6 mph 3.2 mph 86 % 0.0 in
01:25 19.9 °F 17.5 °F 1018.8 in SW 1.6 mph 3.2 mph 86 % 0.0 in
01:35 19.9 °F 17.5 °F 1018.8 in Calm   1.6 mph 86 % 0.0 in
01:45 19.8 °F 17.4 °F 1018.8 in SW 1.6 mph 3.2 mph 86 % 0.0 in
01:55 19.7 °F 17.3 °F 1018.8 in Calm     86 % 0.0 in
02:05 19.6 °F 17.2 °F 1018.8 in Calm   1.6 mph 86 % 0.0 in
02:15 19.6 °F 17.2 °F 1018.8 in Calm   3.2 mph 86 % 0.0 in
02:25 19.6 °F 17.2 °F 1018.8 in WSW 1.6 mph 3.2 mph 86 % 0.0 in
02:35 19.6 °F 17.2 °F 1018.8 in Calm   1.6 mph 86 % 0.0 in
02:45 19.5 °F 17.1 °F 1018.8 in WSW 1.6 mph 1.6 mph 86 % 0.0 in
02:55 19.5 °F 17.1 °F 1018.8 in Calm     86 % 0.0 in
03:05 19.4 °F 17.0 °F 1018.8 in Calm     86 % 0.0 in
03:15 19.3 °F 16.9 °F 1018.8 in Calm   1.6 mph 86 % 0.0 in
03:25 19.3 °F 17.1 °F 1018.8 in Calm     87 % 0.0 in
03:35 19.3 °F 17.1 °F 1018.8 in Calm     87 % 0.0 in
03:45 19.4 °F 17.2 °F 1018.8 in Calm   1.6 mph 87 % 0.0 in
03:55 19.5 °F 17.1 °F 1018.8 in WSW 1.6 mph 1.6 mph 86 % 0.0 in
04:05 19.6 °F 17.4 °F 1018.8 in Calm   3.2 mph 87 % 0.0 in
04:15 19.7 °F 17.3 °F 1018.8 in SW 3.2 mph 4.8 mph 86 % 0.0 in
04:25 20.0 °F 17.4 °F 1018.8 in SW 1.6 mph 3.2 mph 85 % 0.0 in
04:35 20.4 °F 17.8 °F 1018.8 in SW 1.6 mph 3.2 mph 85 % 0.0 in
04:45 20.6 °F 17.8 °F 1018.8 in Calm   1.6 mph 84 % 0.0 in
04:55 20.9 °F 18.1 °F 1018.8 in Calm   1.6 mph 84 % 0.0 in
05:05 21.3 °F 18.3 °F 1018.8 in SE 1.6 mph 3.2 mph 83 % 0.0 in
05:15 22.2 °F 19.0 °F 1018.8 in NNE 3.2 mph 3.2 mph 82 % 0.0 in
05:25 22.6 °F 18.8 °F 1018.8 in North 1.6 mph 4.8 mph 79 % 0.0 in
05:35 22.7 °F 18.4 °F 1019.9 in NE 4.8 mph 6.4 mph 77 % 0.0 in
05:45 23.2 °F 18.5 °F 1018.8 in NE 3.2 mph 6.4 mph 75 % 0.0 in
10:49 27.0 °F 19.6 °F 1018.8 in WSW 3.7 mph 3.7 mph 64 % 0.0 in
10:54 26.7 °F 19.1 °F 1018.8 in East 4.2 mph 4.2 mph 63 % 0.0 in
10:59 25.7 °F 17.9 °F 1018.8 in South 9.3 mph 9.3 mph 62 % 0.0 in
11:04 26.6 °F 19.2 °F 1018.8 in ESE 5.6 mph 5.6 mph 64 % 0.0 in
11:09 26.4 °F 18.8 °F 1018.8 in SE 7.4 mph 7.4 mph 63 % 0.0 in
11:14 27.3 °F 19.6 °F 1018.8 in ESE 3.7 mph 3.7 mph 63 % 0.0 in
11:19 27.5 °F 19.3 °F 1018.8 in ESE 3.7 mph 3.7 mph 61 % 0.0 in
11:24 27.9 °F 19.7 °F 1018.8 in West 3.7 mph 3.7 mph 61 % 0.0 in
11:29 28.0 °F 19.5 °F 1018.8 in East 5.6 mph 5.6 mph 60 % 0.0 in
11:34 28.0 °F 19.5 °F 1018.8 in WSW 7.4 mph 7.4 mph 60 % 0.0 in
11:39 27.9 °F 19.2 °F 1018.8 in ENE 5.6 mph 5.6 mph 59 % 0.0 in
11:44 28.0 °F 18.9 °F 1018.8 in NE 5.6 mph 5.6 mph 58 % 0.0 in
11:49 27.8 °F 18.8 °F 1018.8 in ENE 5.6 mph 5.6 mph 58 % 0.0 in
11:54 27.8 °F 18.2 °F 1018.8 in South 9.3 mph 9.3 mph 56 % 0.0 in
11:59 28.7 °F 19.1 °F 1017.8 in ESE 3.9 mph 3.9 mph 56 % 0.0 in
12:04 28.7 °F 19.1 °F 1017.8 in NNE 3.7 mph 3.7 mph 56 % 0.0 in
12:09 28.8 °F 19.2 °F 1017.8 in SSE 3.7 mph 3.7 mph 56 % 0.0 in
12:14 29.0 °F 18.8 °F 1017.8 in WSW 5.6 mph 5.6 mph 54 % 0.0 in
12:19 29.4 °F 18.8 °F 1017.8 in SW 4.7 mph 4.7 mph 53 % 0.0 in
12:24 29.8 °F 18.6 °F 1017.8 in SE 3.7 mph 3.9 mph 51 % 0.0 in
12:29 30.0 °F 18.8 °F 1016.8 in WSW 5.6 mph 5.6 mph 51 % 0.0 in
12:34 30.1 °F 18.6 °F 1016.8 in South 5.8 mph 5.8 mph 50 % 0.0 in
12:39 30.2 °F 18.3 °F 1016.8 in SSE 5.0 mph 5.0 mph 49 % 0.0 in
12:44 30.9 °F 18.6 °F 1017.8 in South 11.1 mph 11.1 mph 48 % 0.0 in
12:49 30.6 °F 18.7 °F 1017.8 in SW 9.3 mph 9.3 mph 49 % 0.0 in
12:54 30.4 °F 18.5 °F 1017.8 in SSW 5.6 mph 5.6 mph 49 % 0.0 in
12:59 30.0 °F 17.1 °F 1017.8 in ESE 5.8 mph 5.8 mph 46 % 0.0 in
13:04 29.7 °F 16.8 °F 1017.8 in WSW 3.7 mph 3.7 mph 46 % 0.0 in
13:09 30.3 °F 18.1 °F 1017.8 in West 9.3 mph 9.3 mph 48 % 0.0 in
13:10 30.3 °F 18.1 °F 1017.8 in WSW 9.5 mph 9.5 mph 48 % 0.0 in
13:15 30.7 °F 17.8 °F 1017.8 in SSE 3.9 mph 3.9 mph 46 % 0.0 in
13:20 31.6 °F 18.2 °F 1017.8 in WSW 9.7 mph 9.7 mph 45 % 0.0 in
13:25 31.2 °F 16.0 °F 1017.8 in SE 7.4 mph 7.4 mph 40 % 0.0 in
13:30 31.3 °F 16.1 °F 1017.8 in NE 5.6 mph 5.6 mph 40 % 0.0 in
13:35 30.8 °F 16.0 °F 1017.8 in East 7.4 mph 7.4 mph 41 % 0.0 in
13:40 30.6 °F 15.8 °F 1017.8 in East 9.3 mph 9.3 mph 41 % 0.0 in
13:45 31.0 °F 16.6 °F 1017.8 in South 9.7 mph 9.7 mph 42 % 0.0 in
13:50 31.7 °F 16.8 °F 1017.8 in NNW 11.1 mph 11.1 mph 41 % 0.0 in
13:55 31.7 °F 16.8 °F 1017.8 in WSW 5.6 mph 5.6 mph 41 % 0.0 in
14:00 32.1 °F 16.8 °F 1016.8 in South 7.4 mph 7.4 mph 40 % 0.0 in
14:05 32.4 °F 17.4 °F 1016.8 in SSW 8.0 mph 11.3 mph 41 % 0.0 in
14:10 32.5 °F 17.6 °F 1016.8 in West 9.3 mph 9.3 mph 41 % 0.0 in
14:15 32.1 °F 17.2 °F 1016.8 in NE 3.7 mph 3.7 mph 41 % 0.0 in
14:20 32.6 °F 16.4 °F 1016.8 in SSW 12.6 mph 12.6 mph 38 % 0.0 in
14:25 32.1 °F 16.4 °F 1016.8 in ESE 9.3 mph 9.3 mph 39 % 0.0 in
14:30 32.3 °F 17.4 °F 1016.8 in ESE 11.1 mph 11.1 mph 41 % 0.0 in
14:35 31.7 °F 17.6 °F 1016.8 in NE 9.3 mph 9.3 mph 43 % 0.0 in
14:40 31.9 °F 17.8 °F 1016.8 in ESE 7.4 mph 7.4 mph 43 % 0.0 in
14:45 31.5 °F 17.8 °F 1015.8 in SE 4.8 mph 9.7 mph 44 % 0.0 in
14:50 30.4 °F 17.8 °F 1015.8 in ESE 13.0 mph 13.0 mph 47 % 0.0 in
14:55 30.1 °F 18.2 °F 1015.8 in ESE 11.3 mph 17.7 mph 49 % 0.0 in
15:00 30.0 °F 18.1 °F 1015.8 in East 10.0 mph 10.0 mph 49 % 0.0 in
15:05 30.2 °F 18.6 °F 1015.8 in East 14.0 mph 14.0 mph 50 % 0.0 in
15:10 29.8 °F 18.6 °F 1015.8 in East 8.0 mph 20.9 mph 51 % 0.0 in
15:15 29.8 °F 18.9 °F 1015.8 in ESE 18.5 mph 18.5 mph 52 % 0.0 in
15:20 29.6 °F 19.0 °F 1015.8 in ESE 13.7 mph 13.7 mph 53 % 0.0 in
15:25 29.5 °F 19.2 °F 1015.8 in East 11.9 mph 11.9 mph 54 % 0.0 in
15:30 29.7 °F 19.1 °F 1015.8 in ESE 14.8 mph 14.8 mph 53 % 0.0 in
15:35 29.5 °F 18.9 °F 1015.8 in NNE 13.0 mph 13.0 mph 53 % 0.0 in
15:40 29.5 °F 18.9 °F 1015.8 in ESE 9.3 mph 9.3 mph 53 % 0.0 in
15:45 29.6 °F 19.0 °F 1015.8 in South 13.0 mph 13.0 mph 53 % 0.0 in
15:50 30.4 °F 19.4 °F 1015.8 in SSW 7.4 mph 7.4 mph 52 % 0.0 in
15:55 30.5 °F 19.6 °F 1015.8 in WSW 5.8 mph 5.8 mph 52 % 0.0 in
16:00 30.6 °F 19.3 °F 1015.8 in SSW 13.0 mph 13.0 mph 51 % 0.0 in
16:05 30.1 °F 19.2 °F 1015.8 in South 9.3 mph 9.3 mph 52 % 0.0 in
16:10 31.0 °F 19.3 °F 1015.8 in SW 9.3 mph 9.3 mph 50 % 0.0 in
16:15 31.5 °F 19.8 °F 1015.8 in WSW 10.0 mph 10.0 mph 50 % 0.0 in
16:20 31.6 °F 19.6 °F 1015.8 in South 9.3 mph 9.3 mph 49 % 0.0 in
16:25 32.0 °F 19.9 °F 1015.8 in SW 9.3 mph 9.3 mph 49 % 0.0 in
16:30 32.2 °F 20.1 °F 1015.8 in SW 13.0 mph 13.0 mph 49 % 0.0 in
16:35 32.5 °F 20.1 °F 1015.8 in South 9.3 mph 9.3 mph 48 % 0.0 in
16:36 32.5 °F 20.1 °F 1015.8 in WSW 9.3 mph 9.3 mph 48 % 0.0 in
16:41 32.5 °F 20.1 °F 1015.8 in SW 14.8 mph 14.8 mph 48 % 0.0 in
16:46 32.4 °F 20.0 °F 1015.8 in West 9.5 mph 9.5 mph 48 % 0.0 in
16:51 32.4 °F 19.7 °F 1015.8 in ESE 7.4 mph 7.4 mph 47 % 0.0 in
16:56 32.5 °F 19.7 °F 1015.8 in SSW 10.0 mph 10.0 mph 47 % 0.0 in
17:01 32.7 °F 19.9 °F 1015.8 in South 11.1 mph 11.1 mph 47 % 0.0 in
17:06 32.3 °F 19.6 °F 1015.8 in ENE 5.6 mph 5.6 mph 47 % 0.0 in
17:11 31.6 °F 19.3 °F 1015.8 in ESE 7.9 mph 9.0 mph 48 % 0.0 in
17:16 31.4 °F 19.1 °F 1015.8 in East 7.4 mph 7.4 mph 48 % 0.0 in
17:21 31.3 °F 19.3 °F 1015.8 in WSW 4.7 mph 4.7 mph 49 % 0.0 in
17:26 31.6 °F 19.3 °F 1014.8 in ESE 5.6 mph 5.6 mph 48 % 0.0 in
17:31 30.7 °F 19.1 °F 1014.8 in ESE 13.7 mph 13.7 mph 50 % 0.0 in
17:36 29.7 °F 18.8 °F 1014.8 in ESE 13.0 mph 13.7 mph 52 % 0.0 in
17:41 29.3 °F 18.7 °F 1015.8 in ESE 18.5 mph 18.5 mph 53 % 0.0 in
17:46 29.8 °F 19.5 °F 1015.8 in ESE 9.3 mph 9.3 mph 54 % 0.0 in
17:51 29.5 °F 18.9 °F 1015.8 in West 9.3 mph 9.3 mph 53 % 0.0 in
17:56 28.9 °F 18.9 °F 1015.8 in WSW 7.4 mph 7.4 mph 55 % 0.0 in
18:01 29.7 °F 19.4 °F 1015.8 in West 5.6 mph 6.4 mph 54 % 0.0 in
18:06 29.8 °F 19.2 °F 1015.8 in NNE 5.6 mph 5.6 mph 53 % 0.0 in
18:11 29.8 °F 19.2 °F 1015.8 in ESE 5.6 mph 5.6 mph 53 % 0.0 in
18:16 30.1 °F 19.4 °F 1015.8 in SSW 9.3 mph 9.3 mph 53 % 0.0 in
18:21 30.6 °F 19.6 °F 1015.8 in SW 7.4 mph 7.4 mph 52 % 0.0 in
18:26 30.6 °F 19.6 °F 1015.8 in SSW 11.1 mph 11.1 mph 52 % 0.0 in
18:31 30.5 °F 19.6 °F 1015.8 in SW 9.3 mph 9.3 mph 52 % 0.0 in
18:36 30.2 °F 19.3 °F 1015.8 in SSW 9.5 mph 9.5 mph 52 % 0.0 in
18:41 29.7 °F 18.8 °F 1015.8 in SSW 13.0 mph 13.0 mph 52 % 0.0 in
18:46 29.4 °F 18.5 °F 1015.8 in WSW 11.1 mph 11.1 mph 52 % 0.0 in
18:51 29.5 °F 18.6 °F 1015.8 in SW 9.3 mph 9.3 mph 52 % 0.0 in
18:56 29.2 °F 18.3 °F 1015.8 in West 13.0 mph 13.0 mph 52 % 0.0 in
18:57 29.1 °F 18.2 °F 1015.8 in WSW 9.3 mph 9.3 mph 52 % 0.0 in
19:02 28.9 °F 18.7 °F 1015.8 in SW 14.8 mph 14.8 mph 54 % 0.0 in
19:07 28.8 °F 18.6 °F 1015.8 in SW 14.8 mph 14.8 mph 54 % 0.0 in
19:12 28.5 °F 18.3 °F 1015.8 in SW 7.9 mph 7.9 mph 54 % 0.0 in
19:17 28.5 °F 18.6 °F 1015.8 in SSW 7.4 mph 7.4 mph 55 % 0.0 in
19:22 28.3 °F 18.4 °F 1015.8 in West 14.8 mph 14.8 mph 55 % 0.0 in
19:27 28.0 °F 18.4 °F 1015.8 in WSW 11.4 mph 11.4 mph 56 % 0.0 in
19:32 27.8 °F 18.2 °F 1015.8 in SW 11.1 mph 11.1 mph 56 % 0.0 in
19:37 27.7 °F 18.4 °F 1015.8 in SW 11.1 mph 11.1 mph 57 % 0.0 in
19:42 27.5 °F 18.2 °F 1015.8 in SW 13.0 mph 13.0 mph 57 % 0.0 in
19:47 27.6 °F 18.3 °F 1015.8 in SW 7.4 mph 7.4 mph 57 % 0.0 in
19:52 27.5 °F 18.5 °F 1015.8 in SW 7.9 mph 7.9 mph 58 % 0.0 in
19:57 27.1 °F 18.1 °F 1015.8 in SW 11.1 mph 11.1 mph 58 % 0.0 in
20:02 27.1 °F 18.1 °F 1015.8 in SSW 3.7 mph 3.7 mph 58 % 0.0 in
20:07 27.0 °F 18.3 °F 1015.8 in SW 7.4 mph 7.4 mph 59 % 0.0 in
20:12 26.8 °F 18.4 °F 1015.8 in SSE 7.4 mph 7.4 mph 60 % 0.0 in
20:15 23.3 °F 17.7 °F 1016.8 in SW 3.2 mph 3.2 mph 71 % 0.0 in
20:17 26.4 °F 18.0 °F 1015.8 in Calm     60 % 0.0 in
20:22 26.3 °F 18.2 °F 1015.8 in East 5.8 mph 5.8 mph 61 % 0.0 in
20:25 23.1 °F 17.8 °F 1016.8 in SW 3.2 mph 3.2 mph 72 % 0.0 in
20:27 26.0 °F 17.9 °F 1014.8 in West 2.6 mph 3.2 mph 61 % 0.0 in
20:32 25.6 °F 17.5 °F 1014.8 in East 7.4 mph 7.4 mph 61 % 0.0 in
20:35 23.0 °F 17.9 °F 1016.8 in SW 1.6 mph 3.2 mph 73 % 0.0 in
20:37 25.4 °F 17.6 °F 1014.8 in ESE 7.9 mph 7.9 mph 62 % 0.0 in
20:42 25.2 °F 17.7 °F 1014.8 in ENE 5.6 mph 5.6 mph 63 % 0.0 in
20:45 22.9 °F 18.2 °F 1016.8 in WSW 1.6 mph 1.6 mph 75 % 0.0 in
20:47 25.1 °F 17.6 °F 1014.8 in East 7.4 mph 7.4 mph 63 % 0.0 in
20:52 25.0 °F 17.7 °F 1014.8 in ESE 5.6 mph 5.6 mph 64 % 0.0 in
20:55 22.8 °F 18.1 °F 1016.8 in WSW 1.6 mph 3.2 mph 75 % 0.0 in
20:57 24.9 °F 17.9 °F 1015.8 in East 5.8 mph 5.8 mph 65 % 0.0 in
21:02 24.7 °F 17.7 °F 1015.8 in ESE 5.6 mph 5.6 mph 65 % 0.0 in
21:05 22.8 °F 18.3 °F 1015.8 in WSW 3.2 mph 4.8 mph 76 % 0.0 in
21:07 24.6 °F 17.6 °F 1015.8 in ENE 7.4 mph 7.4 mph 65 % 0.0 in
21:12 24.5 °F 17.7 °F 1016.8 in NE 7.4 mph 7.4 mph 66 % 0.0 in
21:15 22.7 °F 18.2 °F 1016.8 in WSW 1.6 mph 3.2 mph 76 % 0.0 in
21:17 24.4 °F 17.6 °F 1016.8 in NE 9.3 mph 9.3 mph 66 % 0.0 in
21:22 24.3 °F 17.6 °F 1016.8 in ENE 13.0 mph 13.0 mph 66 % 0.0 in
21:25 22.6 °F 18.4 °F 1016.8 in WSW 1.6 mph 4.8 mph 77 % 0.0 in
21:27 24.3 °F 17.8 °F 1015.8 in ENE 7.4 mph 7.4 mph 67 % 0.0 in
21:32 24.2 °F 17.7 °F 1015.8 in ENE 5.6 mph 5.6 mph 67 % 0.0 in
21:35 22.4 °F 18.4 °F 1016.8 in Calm   3.2 mph 78 % 0.0 in
21:37 24.1 °F 17.6 °F 1015.8 in ENE 5.6 mph 5.6 mph 67 % 0.0 in
21:42 24.0 °F 17.7 °F 1015.8 in East 5.6 mph 5.6 mph 68 % 0.0 in
21:45 22.2 °F 18.2 °F 1015.8 in SW 3.2 mph 3.2 mph 78 % 0.0 in
21:47 24.0 °F 17.7 °F 1015.8 in NNE 3.9 mph 3.9 mph 68 % 0.0 in
21:52 23.9 °F 17.9 °F 1015.8 in ENE 5.6 mph 5.6 mph 69 % 0.0 in
21:55 22.0 °F 18.2 °F 1015.8 in SW 1.6 mph 3.2 mph 79 % 0.0 in
21:57 23.8 °F 17.8 °F 1016.8 in NNE 7.4 mph 7.4 mph 69 % 0.0 in
22:02 23.8 °F 17.8 °F 1016.8 in East 3.7 mph 3.7 mph 69 % 0.0 in
22:05 21.9 °F 18.1 °F 1015.8 in SW 1.6 mph 3.2 mph 79 % 0.0 in
22:07 23.8 °F 17.8 °F 1016.8 in NE 5.6 mph 5.6 mph 69 % 0.0 in
22:12 23.7 °F 17.7 °F 1016.8 in ENE 3.7 mph 3.7 mph 69 % 0.0 in
22:15 21.8 °F 18.2 °F 1015.8 in Calm   3.2 mph 80 % 0.0 in
22:17 23.7 °F 17.7 °F 1016.8 in NE 6.9 mph 6.9 mph 69 % 0.0 in
22:22 23.7 °F 17.7 °F 1016.8 in East 4.2 mph 4.2 mph 69 % 0.0 in
22:25 21.7 °F 18.1 °F 1015.8 in SW 1.6 mph 3.2 mph 80 % 0.0 in
22:27 23.6 °F 17.6 °F 1016.8 in NNE 2.6 mph 2.6 mph 69 % 0.0 in
22:32 23.5 °F 17.5 °F 1016.8 in ENE 1.9 mph 2.3 mph 69 % 0.0 in
22:35 21.6 °F 18.2 °F 1015.8 in Calm   3.2 mph 81 % 0.0 in
22:37 23.4 °F 17.2 °F 1016.8 in NE 3.9 mph 3.9 mph 68 % 0.0 in
22:42 23.4 °F 17.2 °F 1016.8 in ENE 3.7 mph 3.7 mph 68 % 0.0 in
22:45 21.5 °F 18.1 °F 1015.8 in SW 1.6 mph 3.2 mph 81 % 0.0 in
22:47 23.4 °F 17.2 °F 1016.8 in NE 3.7 mph 3.7 mph 68 % 0.0 in
22:52 23.3 °F 17.1 °F 1016.8 in NE 3.7 mph   68 % 0.0 in
22:55 21.5 °F 18.3 °F 1015.8 in Calm   1.6 mph 82 % 0.0 in
22:57 23.3 °F 17.1 °F 1016.8 in NE 3.7 mph 3.7 mph 68 % 0.0 in
23:02 23.2 °F 16.9 °F 1016.8 in ENE 3.7 mph 3.7 mph 68 % 0.0 in
23:05 21.4 °F 18.2 °F 1015.8 in Calm   3.2 mph 82 % 0.0 in
23:07 23.3 °F 17.1 °F 1016.8 in ENE 3.7 mph 3.7 mph 68 % 0.0 in
23:12 23.3 °F 17.1 °F 1017.8 in East 1.9 mph   68 % 0.0 in
23:15 21.4 °F 18.2 °F 1015.8 in WSW 1.6 mph 1.6 mph 82 % 0.0 in
23:17 23.2 °F 16.9 °F 1017.8 in NE 2.6 mph 2.6 mph 68 % 0.0 in
23:22 23.3 °F 17.1 °F 1017.8 in NE 1.9 mph 1.9 mph 68 % 0.0 in
23:25 21.4 °F 18.4 °F 1015.8 in Calm   1.6 mph 83 % 0.0 in
23:27 23.3 °F 17.1 °F 1016.8 in NE 1.9 mph 1.9 mph 68 % 0.0 in
23:32 23.3 °F 17.1 °F 1016.8 in Calm     68 % 0.0 in
23:35 21.3 °F 18.3 °F 1015.8 in Calm   3.2 mph 83 % 0.0 in
23:37 23.3 °F 17.1 °F 1016.8 in Calm     68 % 0.0 in
23:42 23.3 °F 17.1 °F 1016.8 in SW 1.9 mph   68 % 0.0 in
23:45 21.3 °F 18.3 °F 1015.8 in Calm     83 % 0.0 in
23:47 23.3 °F 17.1 °F 1016.8 in SW 2.6 mph   68 % 0.0 in
23:52 23.3 °F 17.3 °F 1016.8 in SW 2.6 mph 2.6 mph 69 % 0.0 in
23:55 21.3 °F 18.3 °F 1015.8 in Calm     83 % 0.0 in
23:58 23.3 °F 17.3 °F 1016.8 in SW 1.9 mph   69 % 0.0 in
Meteo Sesrovires
Elogis d' Weather Underground - 1.5 mb

Guio original per  Jim McMurry - jmcmurry@mwt.net Adaptat per a la plantilla per  Wim van der Kuil - Leuven-Template.eu

Trobareu la nostra informacio del temps tambe a:

Weather Underground

AWEKAS